createdAt,value
2023-01-11T00:00:54.042Z,6.7
2023-01-11T00:03:54.047Z,7
2023-01-11T00:06:54.105Z,5.5
2023-01-11T00:09:54.054Z,6.1
2023-01-11T00:12:54.081Z,6.4
2023-01-11T00:15:54.064Z,6.6
2023-01-11T00:18:54.043Z,6.3
2023-01-11T00:21:54.053Z,6.1
2023-01-11T00:24:54.043Z,6.3
2023-01-11T00:27:54.073Z,5.2
2023-01-11T00:30:54.136Z,5.8
2023-01-11T00:33:54.060Z,4.7
2023-01-11T00:36:54.054Z,4.7
2023-01-11T00:39:54.065Z,5
2023-01-11T00:42:54.073Z,6.3
2023-01-11T00:45:54.097Z,4.4
2023-01-11T00:48:54.082Z,4.3
2023-01-11T00:51:54.059Z,4.8
2023-01-11T00:54:54.057Z,5.8
2023-01-11T00:57:54.070Z,4.4
2023-01-11T01:00:54.061Z,5.1
2023-01-11T01:03:54.075Z,3.8
2023-01-11T01:06:54.186Z,3.8
2023-01-11T01:09:54.059Z,4.5
2023-01-11T01:12:54.075Z,4.5
2023-01-11T01:15:54.124Z,3.6
2023-01-11T01:18:54.061Z,3.6
2023-01-11T01:21:54.066Z,3
2023-01-11T01:24:54.089Z,4.9
2023-01-11T01:27:54.079Z,3.6
2023-01-11T01:30:54.079Z,3.4
2023-01-11T01:33:54.069Z,3.8
2023-01-11T01:36:54.070Z,3
2023-01-11T01:39:54.073Z,3.3
2023-01-11T01:42:54.125Z,3.2
2023-01-11T01:45:54.071Z,3.5
2023-01-11T01:48:54.077Z,2.7
2023-01-11T01:51:54.090Z,3.7
2023-01-11T01:54:54.083Z,3.6
2023-01-11T01:57:54.121Z,3.2
2023-01-11T02:00:54.110Z,3.2
2023-01-11T02:03:54.093Z,4
2023-01-11T02:06:54.153Z,3.6
2023-01-11T02:09:54.096Z,3.6
2023-01-11T02:12:54.120Z,3.4
2023-01-11T02:15:54.113Z,2.9
2023-01-11T02:18:54.129Z,3.1
2023-01-11T02:21:54.112Z,3.3
2023-01-11T02:24:54.121Z,2.5
2023-01-11T02:27:54.127Z,3.4
2023-01-11T02:30:54.167Z,2.9
2023-01-11T02:33:54.121Z,2.8
2023-01-11T02:36:54.151Z,3
2023-01-11T02:39:54.127Z,3.5
2023-01-11T02:42:54.154Z,3.1
2023-01-11T02:45:54.160Z,3.1
2023-01-11T02:48:54.139Z,3.4
2023-01-11T02:51:54.149Z,3.2
2023-01-11T02:54:54.221Z,3
2023-01-11T02:57:54.163Z,2.1
2023-01-11T03:00:54.160Z,3.4
2023-01-11T03:03:54.165Z,3
2023-01-11T03:06:54.240Z,2.4
2023-01-11T03:09:54.181Z,2
2023-01-11T03:12:54.227Z,2.2
2023-01-11T03:15:54.242Z,2.7
2023-01-11T03:18:54.196Z,2.3
2023-01-11T03:21:54.220Z,3.2
2023-01-11T03:24:54.223Z,2.2
2023-01-11T03:27:54.249Z,2.5
2023-01-11T03:30:54.253Z,2.7
2023-01-11T03:33:54.225Z,2.2
2023-01-11T03:36:54.231Z,2.6
2023-01-11T03:39:54.237Z,3.2
2023-01-11T03:42:54.289Z,2.2
2023-01-11T03:45:54.251Z,2.1
2023-01-11T03:48:54.282Z,2.1
2023-01-11T03:51:54.277Z,2
2023-01-11T03:54:54.277Z,2.2
2023-01-11T03:57:54.303Z,2.9
2023-01-11T04:00:54.395Z,2.3
2023-01-11T04:03:54.330Z,2.4
2023-01-11T04:06:54.376Z,2.8
2023-01-11T04:09:54.323Z,2
2023-01-11T04:12:54.338Z,2.2
2023-01-11T04:15:54.377Z,2
2023-01-11T04:18:54.348Z,2.4
2023-01-11T04:21:54.356Z,2.1
2023-01-11T04:24:54.386Z,2.4
2023-01-11T04:27:54.381Z,2.4
2023-01-11T04:30:54.388Z,1.8
2023-01-11T04:33:54.396Z,2.5
2023-01-11T04:36:54.401Z,2.8
2023-01-11T04:39:54.396Z,2.1
2023-01-11T04:42:54.443Z,2
2023-01-11T04:45:54.458Z,2.1
2023-01-11T04:48:54.419Z,2.1
2023-01-11T04:51:54.435Z,2.2
2023-01-11T04:54:54.431Z,2.3
2023-01-11T04:57:54.444Z,2.2
2023-01-11T05:00:54.506Z,3.5
2023-01-11T05:03:54.491Z,1.7
2023-01-11T05:06:54.509Z,1.5
2023-01-11T05:09:54.452Z,2.3
2023-01-11T05:12:54.473Z,1.6
2023-01-11T05:15:54.464Z,2.1
2023-01-11T05:18:54.490Z,2.3
2023-01-11T05:21:54.493Z,2
2023-01-11T05:24:54.491Z,2.8
2023-01-11T05:27:54.494Z,2.5
2023-01-11T05:30:54.499Z,2.1
2023-01-11T05:33:54.493Z,1.8
2023-01-11T05:36:54.521Z,2.2
2023-01-11T05:39:54.507Z,3
2023-01-11T05:42:54.523Z,2.5
2023-01-11T05:45:54.582Z,2.7
2023-01-11T05:48:54.536Z,2.8
2023-01-11T05:51:54.524Z,1.6
2023-01-11T05:54:54.562Z,2.2
2023-01-11T05:57:54.541Z,1.7
2023-01-11T06:00:54.536Z,1.4
2023-01-11T06:03:54.563Z,1.9
2023-01-11T06:06:54.648Z,1.9
2023-01-11T06:09:54.548Z,3
2023-01-11T06:12:54.590Z,1.8
2023-01-11T06:15:54.551Z,3.2
2023-01-11T06:18:54.565Z,2.6
2023-01-11T06:21:54.562Z,2
2023-01-11T06:24:54.570Z,2.1
2023-01-11T06:27:54.578Z,2.1
2023-01-11T06:30:54.610Z,2
2023-01-11T06:33:54.584Z,2.4
2023-01-11T06:36:54.583Z,2
2023-01-11T06:39:54.587Z,2.4
2023-01-11T06:42:54.607Z,2
2023-01-11T06:45:54.624Z,2.4
2023-01-11T06:48:54.636Z,1.5
2023-01-11T06:51:54.607Z,2.7
2023-01-11T06:54:54.616Z,1.8
2023-01-11T06:57:54.638Z,2.4
2023-01-11T07:00:54.711Z,1.7
2023-01-11T07:03:54.632Z,2.1
2023-01-11T07:06:54.683Z,1.8
2023-01-11T07:09:54.632Z,2.1
2023-01-11T07:12:54.659Z,1.8
2023-01-11T07:15:54.672Z,1.5
2023-01-11T07:18:54.647Z,1.8
2023-01-11T07:21:54.645Z,1.8
2023-01-11T07:24:54.672Z,1.4
2023-01-11T07:27:54.674Z,2.8
2023-01-11T07:30:59.508Z,3.3
2023-01-11T07:33:54.664Z,2.5
2023-01-11T07:36:54.661Z,1.9
2023-01-11T07:39:54.677Z,2.3
2023-01-11T07:42:54.701Z,1.9
2023-01-11T07:45:54.824Z,2
2023-01-11T07:48:54.682Z,2.3
2023-01-11T07:51:54.683Z,2.8
2023-01-11T07:54:54.723Z,5
2023-01-11T07:57:54.701Z,2.5
2023-01-11T08:00:54.726Z,2.2
2023-01-11T08:03:54.717Z,2.1
2023-01-11T08:06:54.698Z,2.3
2023-01-11T08:09:54.703Z,2.3
2023-01-11T08:12:54.717Z,2.1
2023-01-11T08:15:54.776Z,2.1
2023-01-11T08:18:54.729Z,2.3
2023-01-11T08:21:54.715Z,2.6
2023-01-11T08:24:54.730Z,2.8
2023-01-11T08:27:54.727Z,2.2
2023-01-11T08:30:54.802Z,2.6
2023-01-11T08:33:54.732Z,2.9
2023-01-11T08:36:54.784Z,3.2
2023-01-11T08:39:54.740Z,2.6
2023-01-11T08:42:54.759Z,1.9
2023-01-11T08:45:54.746Z,2.2
2023-01-11T08:48:54.747Z,3.2
2023-01-11T08:51:54.776Z,2.4
2023-01-11T08:54:54.805Z,2
2023-01-11T08:57:54.804Z,2.7
2023-01-11T09:00:54.794Z,3.1
2023-01-11T09:03:54.824Z,2.2
2023-01-11T09:06:54.810Z,2.6
2023-01-11T09:09:54.816Z,2.9
2023-01-11T09:12:54.912Z,3.2
2023-01-11T09:15:54.835Z,1.9
2023-01-11T09:18:54.832Z,2.2
2023-01-11T09:21:54.834Z,3.3
2023-01-11T09:24:54.836Z,2.8
2023-01-11T09:27:54.842Z,2.9
2023-01-11T09:30:54.896Z,3.1
2023-01-11T09:33:54.848Z,2.3
2023-01-11T09:36:54.859Z,2.7
2023-01-11T09:39:54.860Z,3.9
2023-01-11T09:42:54.875Z,2.3
2023-01-11T09:45:54.868Z,3.9
2023-01-11T09:48:54.894Z,2.6
2023-01-11T09:51:54.872Z,3
2023-01-11T09:54:54.876Z,2.5
2023-01-11T09:57:54.931Z,3.9
2023-01-11T10:00:55.011Z,3.1
2023-01-11T10:03:54.887Z,3.2
2023-01-11T10:06:54.925Z,2.9
2023-01-11T10:18:25.289Z,3
2023-01-11T10:19:19.019Z,2.5
2023-01-11T10:21:54.918Z,2.4
2023-01-11T10:24:54.978Z,2.7
2023-01-11T10:27:54.936Z,2.1
2023-01-11T10:30:54.932Z,2.2
2023-01-11T10:33:54.939Z,3
2023-01-11T10:36:54.939Z,3
2023-01-11T10:39:54.954Z,2.2
2023-01-11T10:42:54.980Z,3.8
2023-01-11T10:45:55.043Z,2.6
2023-01-11T10:48:54.951Z,3
2023-01-11T10:51:54.961Z,3.1
2023-01-11T10:54:54.987Z,2.3
2023-01-11T10:57:59.173Z,3.2
2023-01-11T11:00:55.062Z,2.7
2023-01-11T11:03:55.029Z,4
2023-01-11T11:06:54.986Z,2.3
2023-01-11T11:09:54.987Z,2.7
2023-01-11T11:12:55.013Z,3.8
2023-01-11T11:15:55.178Z,3
2023-01-11T11:18:55.027Z,2.6
2023-01-11T11:21:55.003Z,3.2
2023-01-11T11:24:55.005Z,3.3
2023-01-11T11:27:55.016Z,3.2
2023-01-11T11:30:55.025Z,3.1
2023-01-11T11:33:55.030Z,3.5
2023-01-11T11:36:55.043Z,2.4
2023-01-11T11:39:55.033Z,2.9
2023-01-11T11:42:55.063Z,2.9
2023-01-11T11:45:55.094Z,3.2
2023-01-11T11:48:55.049Z,3
2023-01-11T11:51:55.040Z,2.9
2023-01-11T11:54:55.131Z,3
2023-01-11T11:57:55.063Z,3.6
2023-01-11T12:00:55.059Z,3.3
2023-01-11T12:03:55.061Z,3.1
2023-01-11T12:06:55.091Z,2.8
2023-01-11T12:09:55.079Z,3.2
2023-01-11T12:12:55.204Z,3.9
2023-01-11T12:15:55.100Z,3
2023-01-11T12:18:55.074Z,2.9
2023-01-11T12:21:55.096Z,2.7
2023-01-11T12:24:55.095Z,2.9
2023-01-11T12:27:55.110Z,2.5
2023-01-11T12:30:55.253Z,2.7
2023-01-11T12:33:55.104Z,2.6
2023-01-11T12:36:55.109Z,3.7
2023-01-11T12:39:55.122Z,3.7
2023-01-11T12:42:55.159Z,3.1
2023-01-11T12:45:55.241Z,2.8
2023-01-11T12:48:55.162Z,1.8
2023-01-11T12:51:55.151Z,2
2023-01-11T12:54:55.146Z,3.1
2023-01-11T12:57:55.170Z,2.2
2023-01-11T13:00:55.247Z,2.5
2023-01-11T13:03:55.161Z,3.2
2023-01-11T13:06:55.210Z,2.2
2023-01-11T13:09:55.170Z,2.6
2023-01-11T13:12:55.192Z,2.4
2023-01-11T13:15:55.189Z,2.8
2023-01-11T13:18:55.183Z,1.9
2023-01-11T13:21:55.198Z,2.5
2023-01-11T13:24:55.227Z,2.2
2023-01-11T13:27:55.209Z,2.2
2023-01-11T13:30:55.216Z,2.3
2023-01-11T13:33:55.205Z,3
2023-01-11T13:36:55.197Z,2.5
2023-01-11T13:39:55.210Z,3.2
2023-01-11T13:42:55.253Z,2.4
2023-01-11T13:45:55.291Z,2.4
2023-01-11T13:48:55.224Z,2.9
2023-01-11T13:51:55.230Z,1.9
2023-01-11T13:54:55.226Z,3.4
2023-01-11T13:57:55.250Z,3.4
2023-01-11T14:00:55.270Z,2.3
2023-01-11T14:03:55.263Z,3
2023-01-11T14:06:55.251Z,2.4
2023-01-11T14:09:55.250Z,3.7
2023-01-11T14:12:55.270Z,2.4
2023-01-11T14:15:55.260Z,2.3
2023-01-11T14:18:55.297Z,2.2
2023-01-11T14:21:55.278Z,3
2023-01-11T14:24:55.270Z,3.1
2023-01-11T14:27:55.342Z,3
2023-01-11T14:30:55.502Z,2.5
2023-01-11T14:33:55.286Z,3.9
2023-01-11T14:36:55.318Z,2.9
2023-01-11T14:39:55.295Z,2.9
2023-01-11T14:42:55.313Z,3.5
2023-01-11T14:45:55.301Z,3.4
2023-01-11T14:48:55.322Z,4.9
2023-01-11T14:51:55.317Z,3.6
2023-01-11T14:54:55.506Z,4.7
2023-01-11T14:57:55.341Z,4.5
2023-01-11T15:00:55.321Z,3.6
2023-01-11T15:03:55.327Z,5.1
2023-01-11T15:06:55.340Z,4.8
2023-01-11T15:09:55.346Z,5.9
2023-01-11T15:12:55.363Z,6
2023-01-11T15:15:55.356Z,5.9
2023-01-11T15:18:55.336Z,5.4
2023-01-11T15:21:55.334Z,6
2023-01-11T15:24:55.337Z,5.9
2023-01-11T15:27:55.360Z,6.8
2023-01-11T15:30:55.402Z,7.6
2023-01-11T15:33:55.484Z,8.6
2023-01-11T15:36:55.350Z,7
2023-01-11T15:39:55.360Z,6.5
2023-01-11T15:42:55.368Z,8.1
2023-01-11T15:45:55.361Z,7.9
2023-01-11T15:48:55.381Z,7.1
2023-01-11T15:51:55.365Z,8.2
2023-01-11T15:54:55.363Z,9.6
2023-01-11T15:57:55.370Z,10
2023-01-11T16:00:55.468Z,11
2023-01-11T16:03:55.388Z,9.7
2023-01-11T16:06:55.407Z,10.5
2023-01-11T16:09:55.369Z,10.5
2023-01-11T16:12:55.383Z,9.7
2023-01-11T16:15:55.441Z,9.9
2023-01-11T16:18:55.381Z,12.1
2023-01-11T16:21:55.454Z,9.4
2023-01-11T16:24:55.399Z,9.9
2023-01-11T16:27:55.406Z,11.9
2023-01-11T16:30:55.381Z,11.9
2023-01-11T16:33:55.380Z,11.1
2023-01-11T16:36:55.384Z,11.3
2023-01-11T16:39:55.385Z,13.1
2023-01-11T16:42:55.433Z,13.1
2023-01-11T16:45:55.474Z,10.6
2023-01-11T16:48:55.394Z,12.5
2023-01-11T16:51:55.392Z,11.9
2023-01-11T16:54:55.394Z,11.9
2023-01-11T16:57:55.436Z,10.1
2023-01-11T17:00:55.486Z,12.1
2023-01-11T17:03:55.405Z,12.8
2023-01-11T17:06:55.403Z,10.3
2023-01-11T17:09:55.408Z,11.6
2023-01-11T17:12:55.420Z,12.9
2023-01-11T17:15:55.417Z,14
2023-01-11T17:18:55.456Z,13.9
2023-01-11T17:21:55.422Z,15.4
2023-01-11T17:24:55.433Z,12.9
2023-01-11T17:27:55.440Z,11.9
2023-01-11T17:30:55.433Z,12.4
2023-01-11T17:33:55.439Z,12.3
2023-01-11T17:36:55.467Z,13.8
2023-01-11T17:39:55.438Z,13.9
2023-01-11T17:42:55.454Z,14.4
2023-01-11T17:45:55.495Z,14.6
2023-01-11T17:48:55.444Z,13.5
2023-01-11T17:51:55.445Z,14.4
2023-01-11T17:54:55.472Z,14.3
2023-01-11T17:57:55.462Z,16.2
2023-01-11T18:00:55.606Z,13.5
2023-01-11T18:03:55.458Z,14
2023-01-11T18:06:55.520Z,12.4
2023-01-11T18:09:55.535Z,16.1
2023-01-11T18:12:55.639Z,13.3
2023-01-11T18:15:55.473Z,13.8
2023-01-11T18:18:55.488Z,15.8
2023-01-11T18:21:55.502Z,11.7
2023-01-11T18:24:55.477Z,15.3
2023-01-11T18:27:55.491Z,13
2023-01-11T18:30:55.530Z,11.4
2023-01-11T18:33:55.490Z,12.9
2023-01-11T18:36:55.492Z,13.8
2023-01-11T18:39:55.490Z,11.7
2023-01-11T18:42:55.513Z,10.9
2023-01-11T18:45:55.595Z,12.8
2023-01-11T18:48:55.527Z,13.3
2023-01-11T18:51:55.512Z,15.9
2023-01-11T18:54:55.518Z,16.5
2023-01-11T18:57:57.488Z,15.7
2023-01-11T19:00:55.514Z,12.9
2023-01-11T19:03:55.520Z,14.7
2023-01-11T19:06:55.546Z,13.4
2023-01-11T19:09:55.525Z,13.9
2023-01-11T19:12:55.541Z,13.7
2023-01-11T19:15:55.570Z,13.1
2023-01-11T19:18:55.546Z,14
2023-01-11T19:21:55.546Z,13.5
2023-01-11T19:24:55.587Z,14.4
2023-01-11T19:27:55.561Z,13.6
2023-01-11T19:30:55.612Z,12.1
2023-01-11T19:33:55.557Z,13.1
2023-01-11T19:36:55.562Z,14.5
2023-01-11T19:39:55.578Z,14.9
2023-01-11T19:42:55.606Z,12.8
2023-01-11T19:45:55.596Z,16.8
2023-01-11T19:48:55.576Z,13.7
2023-01-11T19:51:55.581Z,15.3
2023-01-11T19:54:55.582Z,15.9
2023-01-11T19:57:55.596Z,15
2023-01-11T20:00:55.622Z,16.1
2023-01-11T20:03:55.605Z,18.2
2023-01-11T20:06:55.602Z,14.4
2023-01-11T20:09:55.607Z,17.2
2023-01-11T20:12:55.626Z,16.9
2023-01-11T20:15:55.656Z,14.3
2023-01-11T20:18:55.825Z,15.4
2023-01-11T20:21:55.630Z,14.2
2023-01-11T20:24:55.641Z,20.3
2023-01-11T20:27:55.659Z,14.7
2023-01-11T20:30:55.658Z,16.3
2023-01-11T20:33:55.651Z,16.8
2023-01-11T20:36:55.700Z,13.9
2023-01-11T20:39:55.670Z,14.7
2023-01-11T20:42:55.669Z,14.9
2023-01-11T20:45:55.659Z,14.2
2023-01-11T20:48:55.672Z,16.1
2023-01-11T20:51:55.669Z,14.8
2023-01-11T20:54:55.705Z,14.3
2023-01-11T20:57:55.687Z,14
2023-01-11T21:00:55.688Z,14.6
2023-01-11T21:03:55.697Z,13.2
2023-01-11T21:06:55.705Z,11.9
2023-01-11T21:09:55.725Z,14.8
2023-01-11T21:12:55.760Z,13.3
2023-01-11T21:15:55.745Z,13.6
2023-01-11T21:18:55.755Z,13.6
2023-01-11T21:21:55.734Z,12.3
2023-01-11T21:24:55.737Z,13.2
2023-01-11T21:27:55.757Z,13.1
2023-01-11T21:30:55.783Z,12.8
2023-01-11T21:33:55.763Z,14.2
2023-01-11T21:36:55.763Z,15.9
2023-01-11T21:39:55.763Z,13.3
2023-01-11T21:42:55.785Z,13.5
2023-01-11T21:45:55.779Z,13.9
2023-01-11T21:48:55.859Z,13.5
2023-01-11T21:51:55.791Z,12.1
2023-01-11T21:54:55.792Z,13.1
2023-01-11T21:57:55.804Z,11.8
2023-01-11T22:00:55.833Z,12.3
2023-01-11T22:03:55.888Z,11.9
2023-01-11T22:06:57.491Z,14.1
2023-01-11T22:10:04.400Z,11.8
2023-01-11T22:12:55.820Z,10.4
2023-01-11T22:15:55.844Z,14.4
2023-01-11T22:18:55.810Z,12.1
2023-01-11T22:21:55.811Z,11.1
2023-01-11T22:24:55.921Z,12.8
2023-01-11T22:27:55.828Z,14.5
2023-01-11T22:30:55.812Z,11.5
2023-01-11T22:33:55.822Z,10.2
2023-01-11T22:36:55.820Z,13.4
2023-01-11T22:39:55.827Z,13.1
2023-01-11T22:42:55.872Z,12.9
2023-01-11T22:45:55.853Z,12.2
2023-01-11T22:48:55.854Z,12.4
2023-01-11T22:51:55.848Z,12.8
2023-01-11T22:54:55.850Z,11.1
2023-01-11T22:57:55.866Z,11
2023-01-11T23:00:55.884Z,11.1
2023-01-11T23:03:55.908Z,12.6
2023-01-11T23:06:55.872Z,11.9
2023-01-11T23:09:55.892Z,10.6
2023-01-11T23:12:55.903Z,11.2
2023-01-11T23:15:55.891Z,11.2
2023-01-11T23:18:55.927Z,12.7
2023-01-11T23:21:55.901Z,9.3
2023-01-11T23:24:55.904Z,12.6
2023-01-11T23:27:55.921Z,9.6
2023-01-11T23:30:55.915Z,10.9
2023-01-11T23:33:55.918Z,10.1
2023-01-11T23:36:55.948Z,10.1
2023-01-11T23:39:55.937Z,8.4
2023-01-11T23:42:56.044Z,8.4
2023-01-11T23:45:55.990Z,10.8
2023-01-11T23:48:55.953Z,8.1
2023-01-11T23:51:55.959Z,7.5
2023-01-11T23:54:55.994Z,9.6
2023-01-11T23:57:55.972Z,10.4
